Погода Перастна 2 недели

Тиват, Черногория

17 - 30 июля
  • 17июля
    Сегодня
    +27°
    +41°
    Небольшая облачность, возможен дождь с грозой
    ВремяПогодаТемператураВлажностьДавлениеВетер, м/сВероятность осадков
    02:00Ясно и безоблачно+29°C60 %756 мм1.4 м/с2 %
    05:00Ясно и безоблачно+27°C63 %756 мм1.1 м/с2 %
    08:00Ясно и безоблачно+33°C59 %757 мм0.9 м/с2 %
    11:00Ясно и безоблачно+38°C55 %758 мм1.4 м/с2 %
    14:00Небольшая облачность, возможен дождь с грозой+39°C55 %758 мм1.7 м/с6 %
    17:00Практически безоблачно+40°C52 %758 мм1.5 м/с5 %
    20:00Ясно и безоблачно+35°C75 %758 мм1.0 м/с2 %
    23:00Ясно и безоблачно+30°C68 %758 мм1.3 м/с2 %
  • 18июля
    Четверг
    +27°
    +41°
    Небольшая облачность
    ВремяПогодаТемператураВлажностьДавлениеВетер, м/сВероятность осадков
    02:00Облачно с прояснениями+29°C69 %758 мм2.5 м/с2 %
    05:00Ясно и безоблачно+28°C72 %758 мм2.7 м/с2 %
    08:00Ясно и безоблачно+33°C62 %759 мм1.7 м/с2 %
    11:00Практически безоблачно+39°C41 %759 мм0.7 м/с2 %
    14:00Небольшая облачность+40°C41 %759 мм2.0 м/с4 %
    17:00Небольшая облачность+40°C45 %759 мм0.9 м/с14 %
    20:00Ясно и безоблачно+35°C59 %759 мм2.1 м/с4 %
    23:00Ясно и безоблачно+30°C68 %759 мм3.1 м/с2 %
  • 19июля
    Пятница
    +26°
    +40°
    Ясно и безоблачно
    ВремяПогодаТемператураВлажностьДавлениеВетер, м/сВероятность осадков
    02:00Ясно и безоблачно+28°C75 %759 мм2.9 м/с2 %
    05:00Ясно и безоблачно+28°C72 %758 мм2.9 м/с2 %
    08:00Ясно и безоблачно+32°C63 %759 мм2.1 м/с2 %
    11:00Ясно и безоблачно+39°C47 %759 мм0.9 м/с2 %
    14:00Ясно и безоблачно+40°C49 %758 мм1.8 м/с8 %
    17:00Практически безоблачно+39°C56 %757 мм1.4 м/с28 %
    20:00Практически безоблачно+35°C74 %756 мм0.7 м/с15 %
    23:00Ясно и безоблачно+30°C68 %756 мм2.6 м/с2 %
  • 20июля
    Суббота
    +24°
    +38°
    Ясно и безоблачно
    ВремяПогодаТемператураВлажностьДавлениеВетер, м/сВероятность осадков
    02:00Ясно и безоблачно+28°C72 %756 мм2.6 м/с2 %
    05:00Ясно и безоблачно+27°C77 %755 мм2.5 м/с2 %
    08:00Ясно и безоблачно+31°C67 %755 мм1.8 м/с2 %
    11:00Ясно и безоблачно+37°C53 %755 мм2.1 м/с13 %
    14:00Ясно и безоблачно+38°C50 %754 мм2.6 м/с41 %
    17:00Ясно и безоблачно+37°C58 %754 мм1.2 м/с48 %
    20:00Ясно и безоблачно+34°C72 %754 мм0.3 м/с18 %
    23:00Ясно и безоблачно+28°C85 %754 мм0.5 м/с2 %
  • 21июля
    Воскресенье
    +24°
    +37°
    Небольшая облачность и лёгкий дождик
    ВремяПогодаТемператураВлажностьДавлениеВетер, м/сВероятность осадков
    02:00Ясно и безоблачно+25°C90 %754 мм0.6 м/с2 %
    05:00Ясно и безоблачно+25°C89 %754 мм0.7 м/с2 %
    08:00Ясно и безоблачно+31°C66 %754 мм0.5 м/с2 %
    11:00Практически безоблачно+35°C63 %755 мм2.3 м/с46 %
    14:00Небольшая облачность и лёгкий дождик+36°C62 %754 мм2.2 м/с69 %
    17:00Практически безоблачно+36°C71 %754 мм1.9 м/с45 %
    20:00Ясно и безоблачно+32°C89 %754 мм0.3 м/с7 %
    23:00Ясно и безоблачно+28°C91 %755 мм0.9 м/с2 %
Мы используем cookies
Соглашаюсь